sensor_id;sensor_type;location;lat;lon;timestamp;P1;durP1;ratioP1;P2;durP2;ratioP2
39994;SDS011;25686;51.908;10.418;2023-01-08T00:00:28;4.45;;;3.25;;
39994;SDS011;25686;51.908;10.418;2023-01-08T00:02:29;4.75;;;3.50;;
39994;SDS011;25686;51.908;10.418;2023-01-08T00:04:30;4.82;;;3.42;;
39994;SDS011;25686;51.908;10.418;2023-01-08T00:06:31;5.88;;;3.58;;
39994;SDS011;25686;51.908;10.418;2023-01-08T00:08:32;4.60;;;3.10;;
39994;SDS011;25686;51.908;10.418;2023-01-08T00:10:34;4.45;;;3.20;;
39994;SDS011;25686;51.908;10.418;2023-01-08T00:12:35;4.63;;;3.20;;
39994;SDS011;25686;51.908;10.418;2023-01-08T00:14:36;4.85;;;3.50;;
39994;SDS011;25686;51.908;10.418;2023-01-08T00:16:37;4.68;;;3.40;;
39994;SDS011;25686;51.908;10.418;2023-01-08T00:18:38;6.03;;;3.50;;
39994;SDS011;25686;51.908;10.418;2023-01-08T00:20:42;4.93;;;3.45;;
39994;SDS011;25686;51.908;10.418;2023-01-08T00:22:43;4.15;;;3.35;;
39994;SDS011;25686;51.908;10.418;2023-01-08T00:24:44;6.10;;;3.25;;
39994;SDS011;25686;51.908;10.418;2023-01-08T00:26:44;5.72;;;3.55;;
39994;SDS011;25686;51.908;10.418;2023-01-08T00:28:45;4.45;;;3.50;;
39994;SDS011;25686;51.908;10.418;2023-01-08T00:30:47;4.20;;;3.38;;
39994;SDS011;25686;51.908;10.418;2023-01-08T00:32:48;7.22;;;3.90;;
39994;SDS011;25686;51.908;10.418;2023-01-08T00:34:49;6.03;;;3.60;;
39994;SDS011;25686;51.908;10.418;2023-01-08T00:36:50;5.13;;;3.40;;
39994;SDS011;25686;51.908;10.418;2023-01-08T00:38:51;5.45;;;2.90;;
39994;SDS011;25686;51.908;10.418;2023-01-08T00:40:52;5.07;;;3.58;;
39994;SDS011;25686;51.908;10.418;2023-01-08T00:42:53;4.18;;;3.25;;
39994;SDS011;25686;51.908;10.418;2023-01-08T00:44:53;4.00;;;3.33;;
39994;SDS011;25686;51.908;10.418;2023-01-08T00:46:55;6.28;;;4.05;;
39994;SDS011;25686;51.908;10.418;2023-01-08T00:48:56;7.20;;;3.17;;
39994;SDS011;25686;51.908;10.418;2023-01-08T00:50:56;5.13;;;3.65;;
39994;SDS011;25686;51.908;10.418;2023-01-08T00:52:57;6.00;;;3.80;;
39994;SDS011;25686;51.908;10.418;2023-01-08T00:54:58;6.47;;;3.95;;
39994;SDS011;25686;51.908;10.418;2023-01-08T00:56:59;5.20;;;4.20;;
39994;SDS011;25686;51.908;10.418;2023-01-08T00:59:00;6.53;;;4.50;;
39994;SDS011;25686;51.908;10.418;2023-01-08T01:01:01;8.10;;;4.03;;
39994;SDS011;25686;51.908;10.418;2023-01-08T01:03:08;6.32;;;3.63;;
39994;SDS011;25686;51.908;10.418;2023-01-08T01:05:09;5.55;;;3.80;;
39994;SDS011;25686;51.908;10.418;2023-01-08T01:07:12;6.85;;;3.80;;
39994;SDS011;25686;51.908;10.418;2023-01-08T01:09:13;6.13;;;3.72;;
39994;SDS011;25686;51.908;10.418;2023-01-08T01:11:16;4.93;;;3.45;;
39994;SDS011;25686;51.908;10.418;2023-01-08T01:13:18;4.18;;;3.38;;
39994;SDS011;25686;51.908;10.418;2023-01-08T01:15:19;8.00;;;4.18;;
39994;SDS011;25686;51.908;10.418;2023-01-08T01:17:20;4.28;;;3.42;;
39994;SDS011;25686;51.908;10.418;2023-01-08T01:19:21;5.53;;;3.60;;
39994;SDS011;25686;51.908;10.418;2023-01-08T01:21:23;5.57;;;4.13;;
39994;SDS011;25686;51.908;10.418;2023-01-08T01:23:25;5.25;;;3.75;;
39994;SDS011;25686;51.908;10.418;2023-01-08T01:25:26;6.60;;;4.20;;
39994;SDS011;25686;51.908;10.418;2023-01-08T01:27:26;6.35;;;3.92;;
39994;SDS011;25686;51.908;10.418;2023-01-08T01:29:27;6.03;;;3.97;;
39994;SDS011;25686;51.908;10.418;2023-01-08T01:31:29;5.85;;;4.03;;
39994;SDS011;25686;51.908;10.418;2023-01-08T01:33:31;4.75;;;3.05;;
39994;SDS011;25686;51.908;10.418;2023-01-08T01:35:32;6.28;;;4.00;;
39994;SDS011;25686;51.908;10.418;2023-01-08T01:37:33;4.55;;;3.88;;
39994;SDS011;25686;51.908;10.418;2023-01-08T01:39:33;6.72;;;4.22;;
39994;SDS011;25686;51.908;10.418;2023-01-08T01:41:38;6.40;;;3.72;;
39994;SDS011;25686;51.908;10.418;2023-01-08T01:43:40;7.07;;;4.32;;
39994;SDS011;25686;51.908;10.418;2023-01-08T01:45:41;5.22;;;3.78;;
39994;SDS011;25686;51.908;10.418;2023-01-08T01:47:44;5.55;;;3.78;;
39994;SDS011;25686;51.908;10.418;2023-01-08T01:49:54;6.35;;;3.67;;
39994;SDS011;25686;51.908;10.418;2023-01-08T01:51:57;6.80;;;4.20;;
39994;SDS011;25686;51.908;10.418;2023-01-08T01:54:01;6.50;;;4.60;;
39994;SDS011;25686;51.908;10.418;2023-01-08T01:56:03;5.07;;;3.53;;
39994;SDS011;25686;51.908;10.418;2023-01-08T01:58:14;5.40;;;3.72;;
39994;SDS011;25686;51.908;10.418;2023-01-08T02:00:15;5.30;;;3.20;;
39994;SDS011;25686;51.908;10.418;2023-01-08T02:02:16;7.40;;;4.05;;
39994;SDS011;25686;51.908;10.418;2023-01-08T02:04:17;4.85;;;3.67;;
39994;SDS011;25686;51.908;10.418;2023-01-08T02:10:46;5.15;;;3.50;;
39994;SDS011;25686;51.908;10.418;2023-01-08T02:13:03;7.03;;;3.50;;
39994;SDS011;25686;51.908;10.418;2023-01-08T02:15:15;7.20;;;3.70;;
39994;SDS011;25686;51.908;10.418;2023-01-08T02:17:18;4.60;;;3.47;;
39994;SDS011;25686;51.908;10.418;2023-01-08T02:21:35;4.10;;;3.10;;
39994;SDS011;25686;51.908;10.418;2023-01-08T02:27:52;6.13;;;3.25;;
39994;SDS011;25686;51.908;10.418;2023-01-08T02:29:53;5.03;;;3.72;;
39994;SDS011;25686;51.908;10.418;2023-01-08T02:31:55;5.97;;;3.80;;
39994;SDS011;25686;51.908;10.418;2023-01-08T02:33:56;5.78;;;3.78;;
39994;SDS011;25686;51.908;10.418;2023-01-08T02:38:11;6.28;;;3.60;;
39994;SDS011;25686;51.908;10.418;2023-01-08T02:40:14;4.53;;;3.75;;
39994;SDS011;25686;51.908;10.418;2023-01-08T02:42:20;5.10;;;3.45;;
39994;SDS011;25686;51.908;10.418;2023-01-08T02:44:30;4.15;;;3.70;;
39994;SDS011;25686;51.908;10.418;2023-01-08T02:46:34;5.80;;;3.72;;
39994;SDS011;25686;51.908;10.418;2023-01-08T02:48:38;5.28;;;3.80;;
39994;SDS011;25686;51.908;10.418;2023-01-08T02:50:47;5.50;;;3.75;;
39994;SDS011;25686;51.908;10.418;2023-01-08T02:55:05;7.57;;;3.30;;
39994;SDS011;25686;51.908;10.418;2023-01-08T02:57:10;5.43;;;3.42;;
39994;SDS011;25686;51.908;10.418;2023-01-08T02:59:12;5.03;;;3.53;;
39994;SDS011;25686;51.908;10.418;2023-01-08T03:01:15;5.57;;;4.00;;
39994;SDS011;25686;51.908;10.418;2023-01-08T03:03:18;6.63;;;3.80;;
39994;SDS011;25686;51.908;10.418;2023-01-08T03:05:21;6.63;;;3.53;;
39994;SDS011;25686;51.908;10.418;2023-01-08T03:07:23;5.10;;;3.58;;
39994;SDS011;25686;51.908;10.418;2023-01-08T03:09:24;6.78;;;3.50;;
39994;SDS011;25686;51.908;10.418;2023-01-08T03:11:28;5.13;;;3.10;;
39994;SDS011;25686;51.908;10.418;2023-01-08T03:15:53;4.57;;;3.47;;
39994;SDS011;25686;51.908;10.418;2023-01-08T03:17:56;4.00;;;3.05;;
39994;SDS011;25686;51.908;10.418;2023-01-08T03:19:59;5.78;;;3.55;;
39994;SDS011;25686;51.908;10.418;2023-01-08T03:22:01;5.45;;;3.80;;
39994;SDS011;25686;51.908;10.418;2023-01-08T03:24:03;4.43;;;3.53;;
39994;SDS011;25686;51.908;10.418;2023-01-08T03:26:04;4.65;;;3.38;;
39994;SDS011;25686;51.908;10.418;2023-01-08T03:28:08;4.72;;;3.90;;
39994;SDS011;25686;51.908;10.418;2023-01-08T03:30:09;4.80;;;3.50;;
39994;SDS011;25686;51.908;10.418;2023-01-08T03:32:12;5.43;;;3.83;;
39994;SDS011;25686;51.908;10.418;2023-01-08T03:34:14;5.45;;;3.60;;
39994;SDS011;25686;51.908;10.418;2023-01-08T03:36:17;5.13;;;3.47;;
39994;SDS011;25686;51.908;10.418;2023-01-08T03:38:28;5.38;;;3.72;;
39994;SDS011;25686;51.908;10.418;2023-01-08T03:40:33;4.35;;;3.50;;
39994;SDS011;25686;51.908;10.418;2023-01-08T03:42:35;3.80;;;3.40;;
39994;SDS011;25686;51.908;10.418;2023-01-08T03:44:36;4.35;;;3.28;;
39994;SDS011;25686;51.908;10.418;2023-01-08T03:46:38;6.00;;;3.45;;
39994;SDS011;25686;51.908;10.418;2023-01-08T03:51:18;5.72;;;3.35;;
39994;SDS011;25686;51.908;10.418;2023-01-08T03:53:19;6.25;;;3.47;;
39994;SDS011;25686;51.908;10.418;2023-01-08T03:55:20;4.78;;;3.80;;
39994;SDS011;25686;51.908;10.418;2023-01-08T03:57:21;4.90;;;3.10;;
39994;SDS011;25686;51.908;10.418;2023-01-08T03:59:22;5.07;;;3.42;;
39994;SDS011;25686;51.908;10.418;2023-01-08T04:01:23;4.32;;;3.30;;
39994;SDS011;25686;51.908;10.418;2023-01-08T04:03:24;5.38;;;3.30;;
39994;SDS011;25686;51.908;10.418;2023-01-08T04:05:25;4.45;;;3.38;;
39994;SDS011;25686;51.908;10.418;2023-01-08T04:07:26;3.85;;;3.42;;
39994;SDS011;25686;51.908;10.418;2023-01-08T04:09:27;5.10;;;3.05;;
39994;SDS011;25686;51.908;10.418;2023-01-08T04:11:28;4.05;;;3.05;;
39994;SDS011;25686;51.908;10.418;2023-01-08T04:13:29;4.70;;;3.38;;
39994;SDS011;25686;51.908;10.418;2023-01-08T04:15:30;6.75;;;3.40;;
39994;SDS011;25686;51.908;10.418;2023-01-08T04:17:31;5.88;;;3.53;;
39994;SDS011;25686;51.908;10.418;2023-01-08T04:19:32;5.95;;;3.40;;
39994;SDS011;25686;51.908;10.418;2023-01-08T04:21:33;4.57;;;3.35;;
39994;SDS011;25686;51.908;10.418;2023-01-08T04:23:34;6.25;;;3.80;;
39994;SDS011;25686;51.908;10.418;2023-01-08T04:25:36;5.20;;;3.45;;
39994;SDS011;25686;51.908;10.418;2023-01-08T04:27:37;5.85;;;3.80;;
39994;SDS011;25686;51.908;10.418;2023-01-08T04:29:38;6.35;;;3.65;;
39994;SDS011;25686;51.908;10.418;2023-01-08T04:31:39;6.25;;;3.10;;
39994;SDS011;25686;51.908;10.418;2023-01-08T04:33:40;6.15;;;3.72;;
39994;SDS011;25686;51.908;10.418;2023-01-08T04:35:41;3.42;;;3.08;;
39994;SDS011;25686;51.908;10.418;2023-01-08T04:37:42;4.40;;;3.13;;
39994;SDS011;25686;51.908;10.418;2023-01-08T04:39:43;4.22;;;3.30;;
39994;SDS011;25686;51.908;10.418;2023-01-08T04:41:44;6.13;;;3.38;;
39994;SDS011;25686;51.908;10.418;2023-01-08T04:43:45;5.13;;;3.80;;
39994;SDS011;25686;51.908;10.418;2023-01-08T04:45:46;8.65;;;3.53;;
39994;SDS011;25686;51.908;10.418;2023-01-08T04:47:47;6.90;;;3.78;;
39994;SDS011;25686;51.908;10.418;2023-01-08T04:49:48;4.50;;;3.08;;
39994;SDS011;25686;51.908;10.418;2023-01-08T04:51:49;5.90;;;3.67;;
39994;SDS011;25686;51.908;10.418;2023-01-08T04:53:49;5.10;;;3.63;;
39994;SDS011;25686;51.908;10.418;2023-01-08T04:55:50;3.92;;;3.45;;
39994;SDS011;25686;51.908;10.418;2023-01-08T04:57:51;6.15;;;3.60;;
39994;SDS011;25686;51.908;10.418;2023-01-08T04:59:52;4.95;;;3.83;;
39994;SDS011;25686;51.908;10.418;2023-01-08T05:01:53;5.18;;;3.50;;
39994;SDS011;25686;51.908;10.418;2023-01-08T05:03:59;4.82;;;3.90;;
39994;SDS011;25686;51.908;10.418;2023-01-08T05:06:00;6.72;;;3.50;;
39994;SDS011;25686;51.908;10.418;2023-01-08T05:08:01;4.88;;;3.53;;
39994;SDS011;25686;51.908;10.418;2023-01-08T05:10:02;5.55;;;3.75;;
39994;SDS011;25686;51.908;10.418;2023-01-08T05:12:03;6.40;;;3.72;;
39994;SDS011;25686;51.908;10.418;2023-01-08T05:14:04;4.28;;;3.53;;
39994;SDS011;25686;51.908;10.418;2023-01-08T05:16:05;6.15;;;3.58;;
39994;SDS011;25686;51.908;10.418;2023-01-08T05:18:06;5.38;;;3.30;;
39994;SDS011;25686;51.908;10.418;2023-01-08T05:20:07;4.25;;;3.42;;
39994;SDS011;25686;51.908;10.418;2023-01-08T05:22:08;5.05;;;3.55;;
39994;SDS011;25686;51.908;10.418;2023-01-08T05:24:09;6.38;;;3.95;;
39994;SDS011;25686;51.908;10.418;2023-01-08T05:26:10;4.93;;;3.78;;
39994;SDS011;25686;51.908;10.418;2023-01-08T05:28:11;4.20;;;3.38;;
39994;SDS011;25686;51.908;10.418;2023-01-08T05:30:12;4.10;;;3.30;;
39994;SDS011;25686;51.908;10.418;2023-01-08T05:32:14;4.55;;;3.50;;
39994;SDS011;25686;51.908;10.418;2023-01-08T05:34:16;5.20;;;3.45;;
39994;SDS011;25686;51.908;10.418;2023-01-08T05:36:17;6.72;;;4.10;;
39994;SDS011;25686;51.908;10.418;2023-01-08T05:38:18;6.38;;;3.90;;
39994;SDS011;25686;51.908;10.418;2023-01-08T05:40:19;5.75;;;3.80;;
39994;SDS011;25686;51.908;10.418;2023-01-08T05:42:20;6.13;;;3.80;;
39994;SDS011;25686;51.908;10.418;2023-01-08T05:44:21;7.25;;;4.45;;
39994;SDS011;25686;51.908;10.418;2023-01-08T05:46:22;6.45;;;3.70;;
39994;SDS011;25686;51.908;10.418;2023-01-08T05:48:23;6.65;;;3.78;;
39994;SDS011;25686;51.908;10.418;2023-01-08T05:50:24;6.40;;;4.38;;
39994;SDS011;25686;51.908;10.418;2023-01-08T05:52:25;5.65;;;4.30;;
39994;SDS011;25686;51.908;10.418;2023-01-08T05:54:26;8.02;;;4.47;;
39994;SDS011;25686;51.908;10.418;2023-01-08T05:56:27;5.03;;;3.95;;
39994;SDS011;25686;51.908;10.418;2023-01-08T05:58:28;6.85;;;4.47;;
39994;SDS011;25686;51.908;10.418;2023-01-08T06:00:29;6.05;;;4.30;;
39994;SDS011;25686;51.908;10.418;2023-01-08T06:02:31;6.68;;;4.55;;
39994;SDS011;25686;51.908;10.418;2023-01-08T06:04:32;8.70;;;4.15;;
39994;SDS011;25686;51.908;10.418;2023-01-08T06:06:33;5.32;;;4.30;;
39994;SDS011;25686;51.908;10.418;2023-01-08T06:08:34;5.72;;;4.10;;
39994;SDS011;25686;51.908;10.418;2023-01-08T06:10:36;5.90;;;4.05;;
39994;SDS011;25686;51.908;10.418;2023-01-08T06:12:37;6.38;;;3.78;;
39994;SDS011;25686;51.908;10.418;2023-01-08T06:14:38;4.97;;;4.25;;
39994;SDS011;25686;51.908;10.418;2023-01-08T06:16:39;6.10;;;4.40;;
39994;SDS011;25686;51.908;10.418;2023-01-08T06:18:40;6.40;;;4.40;;
39994;SDS011;25686;51.908;10.418;2023-01-08T06:20:41;8.38;;;4.57;;
39994;SDS011;25686;51.908;10.418;2023-01-08T06:22:42;8.57;;;4.28;;
39994;SDS011;25686;51.908;10.418;2023-01-08T06:24:43;5.85;;;4.10;;
39994;SDS011;25686;51.908;10.418;2023-01-08T06:26:44;5.47;;;4.28;;
39994;SDS011;25686;51.908;10.418;2023-01-08T06:28:45;6.88;;;4.20;;
39994;SDS011;25686;51.908;10.418;2023-01-08T06:30:47;6.95;;;4.13;;
39994;SDS011;25686;51.908;10.418;2023-01-08T06:32:48;7.30;;;4.25;;
39994;SDS011;25686;51.908;10.418;2023-01-08T06:34:49;5.90;;;4.10;;
39994;SDS011;25686;51.908;10.418;2023-01-08T06:36:50;6.85;;;4.40;;
39994;SDS011;25686;51.908;10.418;2023-01-08T06:38:51;5.20;;;4.15;;
39994;SDS011;25686;51.908;10.418;2023-01-08T06:40:52;4.72;;;3.70;;
39994;SDS011;25686;51.908;10.418;2023-01-08T06:42:53;4.65;;;3.95;;
39994;SDS011;25686;51.908;10.418;2023-01-08T06:44:54;4.40;;;3.80;;
39994;SDS011;25686;51.908;10.418;2023-01-08T06:46:55;6.15;;;3.70;;
39994;SDS011;25686;51.908;10.418;2023-01-08T06:48:56;5.15;;;3.55;;
39994;SDS011;25686;51.908;10.418;2023-01-08T06:51:00;5.22;;;3.58;;
39994;SDS011;25686;51.908;10.418;2023-01-08T06:53:01;5.10;;;3.83;;
39994;SDS011;25686;51.908;10.418;2023-01-08T06:55:02;6.38;;;3.83;;
39994;SDS011;25686;51.908;10.418;2023-01-08T06:57:03;5.40;;;3.42;;
39994;SDS011;25686;51.908;10.418;2023-01-08T06:59:04;3.95;;;3.03;;
39994;SDS011;25686;51.908;10.418;2023-01-08T07:01:05;4.70;;;3.30;;
39994;SDS011;25686;51.908;10.418;2023-01-08T07:03:06;4.72;;;3.40;;
39994;SDS011;25686;51.908;10.418;2023-01-08T07:05:07;4.22;;;2.97;;
39994;SDS011;25686;51.908;10.418;2023-01-08T07:07:12;4.20;;;3.00;;
39994;SDS011;25686;51.908;10.418;2023-01-08T07:09:13;3.10;;;2.70;;
39994;SDS011;25686;51.908;10.418;2023-01-08T07:11:16;3.58;;;2.80;;
39994;SDS011;25686;51.908;10.418;2023-01-08T07:13:17;3.03;;;2.53;;
39994;SDS011;25686;51.908;10.418;2023-01-08T07:15:18;4.00;;;2.33;;
39994;SDS011;25686;51.908;10.418;2023-01-08T07:17:19;3.63;;;2.30;;
39994;SDS011;25686;51.908;10.418;2023-01-08T07:19:20;3.10;;;2.50;;
39994;SDS011;25686;51.908;10.418;2023-01-08T07:21:21;4.75;;;2.53;;
39994;SDS011;25686;51.908;10.418;2023-01-08T07:23:22;3.70;;;2.35;;
39994;SDS011;25686;51.908;10.418;2023-01-08T07:25:23;3.13;;;2.50;;
39994;SDS011;25686;51.908;10.418;2023-01-08T07:27:24;4.75;;;2.45;;
39994;SDS011;25686;51.908;10.418;2023-01-08T07:29:25;2.38;;;2.17;;
39994;SDS011;25686;51.908;10.418;2023-01-08T07:31:26;2.83;;;1.92;;
39994;SDS011;25686;51.908;10.418;2023-01-08T07:33:27;2.28;;;2.08;;
39994;SDS011;25686;51.908;10.418;2023-01-08T07:35:28;2.85;;;2.20;;
39994;SDS011;25686;51.908;10.418;2023-01-08T07:37:29;2.00;;;1.80;;
39994;SDS011;25686;51.908;10.418;2023-01-08T07:39:30;2.00;;;1.80;;
39994;SDS011;25686;51.908;10.418;2023-01-08T07:41:31;2.42;;;2.10;;
39994;SDS011;25686;51.908;10.418;2023-01-08T07:43:32;2.78;;;2.25;;
39994;SDS011;25686;51.908;10.418;2023-01-08T07:45:34;3.42;;;1.63;;
39994;SDS011;25686;51.908;10.418;2023-01-08T07:47:35;2.90;;;1.75;;
39994;SDS011;25686;51.908;10.418;2023-01-08T07:49:36;2.83;;;2.05;;
39994;SDS011;25686;51.908;10.418;2023-01-08T07:51:37;2.92;;;2.10;;
39994;SDS011;25686;51.908;10.418;2023-01-08T07:53:38;3.08;;;2.17;;
39994;SDS011;25686;51.908;10.418;2023-01-08T07:55:38;3.00;;;2.15;;
39994;SDS011;25686;51.908;10.418;2023-01-08T07:57:39;1.88;;;1.52;;
39994;SDS011;25686;51.908;10.418;2023-01-08T07:59:40;3.25;;;1.40;;
39994;SDS011;25686;51.908;10.418;2023-01-08T08:01:41;1.63;;;1.10;;
39994;SDS011;25686;51.908;10.418;2023-01-08T08:03:42;1.27;;;1.00;;
39994;SDS011;25686;51.908;10.418;2023-01-08T08:05:43;1.77;;;1.27;;
39994;SDS011;25686;51.908;10.418;2023-01-08T08:07:44;1.05;;;1.00;;
39994;SDS011;25686;51.908;10.418;2023-01-08T08:09:45;3.90;;;1.33;;
39994;SDS011;25686;51.908;10.418;2023-01-08T08:11:46;1.55;;;1.30;;
39994;SDS011;25686;51.908;10.418;2023-01-08T08:13:48;1.30;;;1.00;;
39994;SDS011;25686;51.908;10.418;2023-01-08T08:15:49;2.30;;;1.40;;
39994;SDS011;25686;51.908;10.418;2023-01-08T08:17:50;1.60;;;1.15;;
39994;SDS011;25686;51.908;10.418;2023-01-08T08:19:51;1.50;;;1.27;;
39994;SDS011;25686;51.908;10.418;2023-01-08T08:21:52;2.28;;;1.77;;
39994;SDS011;25686;51.908;10.418;2023-01-08T08:23:53;2.50;;;1.90;;
39994;SDS011;25686;51.908;10.418;2023-01-08T08:25:54;1.30;;;1.20;;
39994;SDS011;25686;51.908;10.418;2023-01-08T08:27:56;3.00;;;1.10;;
39994;SDS011;25686;51.908;10.418;2023-01-08T08:29:57;1.35;;;1.25;;
39994;SDS011;25686;51.908;10.418;2023-01-08T08:31:58;2.13;;;1.65;;
39994;SDS011;25686;51.908;10.418;2023-01-08T08:33:59;1.75;;;1.65;;
39994;SDS011;25686;51.908;10.418;2023-01-08T08:36:00;1.88;;;1.63;;
39994;SDS011;25686;51.908;10.418;2023-01-08T08:38:01;2.85;;;1.30;;
39994;SDS011;25686;51.908;10.418;2023-01-08T08:40:03;1.55;;;1.40;;
39994;SDS011;25686;51.908;10.418;2023-01-08T08:42:05;1.77;;;1.67;;
39994;SDS011;25686;51.908;10.418;2023-01-08T08:44:07;1.70;;;1.15;;
39994;SDS011;25686;51.908;10.418;2023-01-08T08:46:08;2.85;;;1.60;;
39994;SDS011;25686;51.908;10.418;2023-01-08T08:48:09;1.30;;;1.20;;
39994;SDS011;25686;51.908;10.418;2023-01-08T08:50:10;1.65;;;1.42;;
39994;SDS011;25686;51.908;10.418;2023-01-08T08:52:11;1.67;;;1.40;;
39994;SDS011;25686;51.908;10.418;2023-01-08T08:54:12;1.10;;;1.00;;
39994;SDS011;25686;51.908;10.418;2023-01-08T08:56:13;2.55;;;1.30;;
39994;SDS011;25686;51.908;10.418;2023-01-08T08:58:14;1.40;;;1.27;;
39994;SDS011;25686;51.908;10.418;2023-01-08T09:00:15;1.20;;;1.10;;
39994;SDS011;25686;51.908;10.418;2023-01-08T09:02:16;1.98;;;1.30;;
39994;SDS011;25686;51.908;10.418;2023-01-08T09:04:17;1.27;;;1.17;;
39994;SDS011;25686;51.908;10.418;2023-01-08T09:06:18;1.45;;;1.35;;
39994;SDS011;25686;51.908;10.418;2023-01-08T09:08:19;1.17;;;1.08;;
39994;SDS011;25686;51.908;10.418;2023-01-08T09:10:20;1.95;;;1.00;;
39994;SDS011;25686;51.908;10.418;2023-01-08T09:12:21;1.10;;;1.00;;
39994;SDS011;25686;51.908;10.418;2023-01-08T09:14:22;2.17;;;1.10;;
39994;SDS011;25686;51.908;10.418;2023-01-08T09:16:23;2.45;;;1.52;;
39994;SDS011;25686;51.908;10.418;2023-01-08T09:18:24;1.55;;;1.40;;
39994;SDS011;25686;51.908;10.418;2023-01-08T09:20:25;2.22;;;1.15;;
39994;SDS011;25686;51.908;10.418;2023-01-08T09:22:26;0.90;;;0.88;;
39994;SDS011;25686;51.908;10.418;2023-01-08T09:24:27;1.05;;;0.75;;
39994;SDS011;25686;51.908;10.418;2023-01-08T09:26:31;0.98;;;0.98;;
39994;SDS011;25686;51.908;10.418;2023-01-08T09:28:32;1.13;;;0.70;;
39994;SDS011;25686;51.908;10.418;2023-01-08T09:30:33;0.70;;;0.70;;
39994;SDS011;25686;51.908;10.418;2023-01-08T09:32:35;1.02;;;0.80;;
39994;SDS011;25686;51.908;10.418;2023-01-08T09:34:37;0.70;;;0.70;;
39994;SDS011;25686;51.908;10.418;2023-01-08T09:36:38;0.73;;;0.73;;
39994;SDS011;25686;51.908;10.418;2023-01-08T09:38:39;1.05;;;0.70;;
39994;SDS011;25686;51.908;10.418;2023-01-08T09:40:52;0.77;;;0.70;;
39994;SDS011;25686;51.908;10.418;2023-01-08T09:42:56;1.80;;;0.80;;
39994;SDS011;25686;51.908;10.418;2023-01-08T09:44:58;0.85;;;0.70;;
39994;SDS011;25686;51.908;10.418;2023-01-08T09:47:00;0.77;;;0.60;;
39994;SDS011;25686;51.908;10.418;2023-01-08T09:49:05;0.60;;;0.60;;
39994;SDS011;25686;51.908;10.418;2023-01-08T09:51:11;0.68;;;0.68;;
39994;SDS011;25686;51.908;10.418;2023-01-08T09:53:13;1.25;;;0.70;;
39994;SDS011;25686;51.908;10.418;2023-01-08T09:55:14;0.95;;;0.80;;
39994;SDS011;25686;51.908;10.418;2023-01-08T09:57:17;1.52;;;0.82;;
39994;SDS011;25686;51.908;10.418;2023-01-08T09:59:19;1.00;;;0.73;;
39994;SDS011;25686;51.908;10.418;2023-01-08T10:01:21;0.80;;;0.60;;
39994;SDS011;25686;51.908;10.418;2023-01-08T10:03:24;2.17;;;0.90;;
39994;SDS011;25686;51.908;10.418;2023-01-08T10:05:27;0.85;;;0.80;;
39994;SDS011;25686;51.908;10.418;2023-01-08T10:07:29;0.75;;;0.75;;
39994;SDS011;25686;51.908;10.418;2023-01-08T10:09:30;0.60;;;0.60;;
39994;SDS011;25686;51.908;10.418;2023-01-08T10:11:35;0.90;;;0.85;;
39994;SDS011;25686;51.908;10.418;2023-01-08T10:13:38;0.73;;;0.70;;
39994;SDS011;25686;51.908;10.418;2023-01-08T10:15:40;1.10;;;0.80;;
39994;SDS011;25686;51.908;10.418;2023-01-08T10:17:52;1.10;;;1.00;;
39994;SDS011;25686;51.908;10.418;2023-01-08T10:19:54;0.90;;;0.90;;
39994;SDS011;25686;51.908;10.418;2023-01-08T10:21:55;1.95;;;1.27;;
39994;SDS011;25686;51.908;10.418;2023-01-08T10:23:56;1.15;;;1.08;;
39994;SDS011;25686;51.908;10.418;2023-01-08T10:25:58;1.23;;;1.02;;
39994;SDS011;25686;51.908;10.418;2023-01-08T10:28:00;1.77;;;1.20;;
39994;SDS011;25686;51.908;10.418;2023-01-08T10:30:05;1.30;;;1.10;;
39994;SDS011;25686;51.908;10.418;2023-01-08T10:32:16;1.65;;;1.13;;
39994;SDS011;25686;51.908;10.418;2023-01-08T10:34:23;1.15;;;1.05;;
39994;SDS011;25686;51.908;10.418;2023-01-08T10:36:24;1.15;;;1.08;;
39994;SDS011;25686;51.908;10.418;2023-01-08T10:38:30;1.27;;;1.17;;
39994;SDS011;25686;51.908;10.418;2023-01-08T10:40:50;1.30;;;1.08;;
39994;SDS011;25686;51.908;10.418;2023-01-08T10:42:51;1.05;;;0.95;;
39994;SDS011;25686;51.908;10.418;2023-01-08T10:44:54;2.10;;;1.30;;
39994;SDS011;25686;51.908;10.418;2023-01-08T10:46:57;1.38;;;1.25;;
39994;SDS011;25686;51.908;10.418;2023-01-08T10:49:00;1.25;;;1.10;;
39994;SDS011;25686;51.908;10.418;2023-01-08T10:51:05;1.33;;;1.00;;
39994;SDS011;25686;51.908;10.418;2023-01-08T10:53:20;1.20;;;1.10;;
39994;SDS011;25686;51.908;10.418;2023-01-08T10:55:25;1.20;;;1.10;;
39994;SDS011;25686;51.908;10.418;2023-01-08T10:57:27;1.42;;;1.05;;
39994;SDS011;25686;51.908;10.418;2023-01-08T10:59:28;1.40;;;1.30;;
39994;SDS011;25686;51.908;10.418;2023-01-08T11:01:30;1.45;;;1.27;;
39994;SDS011;25686;51.908;10.418;2023-01-08T11:03:32;1.27;;;1.10;;
39994;SDS011;25686;51.908;10.418;2023-01-08T11:07:34;1.40;;;1.30;;
39994;SDS011;25686;51.908;10.418;2023-01-08T11:09:39;2.10;;;1.30;;
39994;SDS011;25686;51.908;10.418;2023-01-08T11:11:41;1.52;;;1.40;;
39994;SDS011;25686;51.908;10.418;2023-01-08T11:13:59;1.33;;;1.23;;
39994;SDS011;25686;51.908;10.418;2023-01-08T11:16:07;2.00;;;1.52;;
39994;SDS011;25686;51.908;10.418;2023-01-08T11:18:15;2.83;;;1.30;;
39994;SDS011;25686;51.908;10.418;2023-01-08T11:22:21;1.20;;;1.10;;
39994;SDS011;25686;51.908;10.418;2023-01-08T11:24:29;1.20;;;1.10;;
39994;SDS011;25686;51.908;10.418;2023-01-08T11:26:31;1.40;;;1.30;;
39994;SDS011;25686;51.908;10.418;2023-01-08T11:28:41;1.42;;;1.20;;
39994;SDS011;25686;51.908;10.418;2023-01-08T11:30:46;1.05;;;0.98;;
39994;SDS011;25686;51.908;10.418;2023-01-08T11:33:05;1.25;;;1.13;;
39994;SDS011;25686;51.908;10.418;2023-01-08T11:37:24;1.50;;;1.40;;
39994;SDS011;25686;51.908;10.418;2023-01-08T11:39:26;1.42;;;1.33;;
39994;SDS011;25686;51.908;10.418;2023-01-08T11:42:28;1.20;;;1.10;;
39994;SDS011;25686;51.908;10.418;2023-01-08T11:48:50;1.17;;;1.00;;
39994;SDS011;25686;51.908;10.418;2023-01-08T11:53:09;1.75;;;1.30;;
39994;SDS011;25686;51.908;10.418;2023-01-08T11:55:38;1.30;;;1.20;;
39994;SDS011;25686;51.908;10.418;2023-01-08T12:01:57;1.20;;;1.10;;
39994;SDS011;25686;51.908;10.418;2023-01-08T12:08:06;1.50;;;1.10;;
39994;SDS011;25686;51.908;10.418;2023-01-08T12:10:29;1.20;;;1.10;;
39994;SDS011;25686;51.908;10.418;2023-01-08T12:19:20;1.30;;;1.10;;
39994;SDS011;25686;51.908;10.418;2023-01-08T12:25:41;1.63;;;1.20;;
39994;SDS011;25686;51.908;10.418;2023-01-08T12:30:16;2.35;;;1.50;;
39994;SDS011;25686;51.908;10.418;2023-01-08T12:39:21;2.70;;;1.65;;
39994;SDS011;25686;51.908;10.418;2023-01-08T12:41:23;1.45;;;1.35;;
39994;SDS011;25686;51.908;10.418;2023-01-08T12:43:27;1.42;;;1.27;;
39994;SDS011;25686;51.908;10.418;2023-01-08T12:45:38;1.30;;;1.20;;
39994;SDS011;25686;51.908;10.418;2023-01-08T12:47:40;1.75;;;1.65;;
39994;SDS011;25686;51.908;10.418;2023-01-08T12:49:44;1.85;;;1.42;;
39994;SDS011;25686;51.908;10.418;2023-01-08T12:55:58;1.60;;;1.50;;
39994;SDS011;25686;51.908;10.418;2023-01-08T12:58:08;1.27;;;1.17;;
39994;SDS011;25686;51.908;10.418;2023-01-08T13:04:42;1.63;;;1.20;;
39994;SDS011;25686;51.908;10.418;2023-01-08T13:06:54;1.13;;;1.02;;
39994;SDS011;25686;51.908;10.418;2023-01-08T13:08:57;1.95;;;1.23;;
39994;SDS011;25686;51.908;10.418;2023-01-08T13:10:59;1.67;;;1.10;;
39994;SDS011;25686;51.908;10.418;2023-01-08T13:13:00;0.98;;;0.90;;
39994;SDS011;25686;51.908;10.418;2023-01-08T13:15:02;0.98;;;0.90;;
39994;SDS011;25686;51.908;10.418;2023-01-08T13:17:06;1.58;;;1.00;;